Time;durP1;ratioP1;P1;durP2;ratioP2;P2;SDS_P1;SDS_P2;PMS_P1;PMS_P2;Temp;Humidity;BMP_temperature;BMP_pressure;BME280_temperature;BME280_humidity;BME280_pressure;Samples;Min_cycle;Max_cycle;Signal;HPM_P1;HPM_P2
2023/10/30 00:01:47;;;;;;;0.60;0.30;;;10.90;99.90;;;;;;5060719;28;20059;-74
2023/10/30 00:04:13;;;;;;;0.10;0.10;;;10.90;99.90;;;;;;5053370;28;20083;-74
2023/10/30 00:06:39;;;;;;;0.50;0.35;;;10.80;99.90;;;;;;5091996;27;20044;-74
2023/10/30 00:09:05;;;;;;;0.22;0.10;;;10.90;99.90;;;;;;5058808;28;20086;-74
2023/10/30 00:11:30;;;;;;;0.93;0.28;;;10.80;99.90;;;;;;5060822;28;20041;-74
2023/10/30 00:13:56;;;;;;;0.45;0.32;;;10.80;99.90;;;;;;5057909;28;20036;-74
2023/10/30 00:16:21;;;;;;;0.55;0.20;;;10.80;99.90;;;;;;5061324;28;20045;-74
2023/10/30 00:18:48;;;;;;;4.65;0.20;;;10.80;99.90;;;;;;5041115;28;20036;-74
2023/10/30 00:21:14;;;;;;;1.50;0.20;;;10.80;99.90;;;;;;5055478;28;20147;-74
2023/10/30 00:23:40;;;;;;;0.47;0.20;;;10.80;99.90;;;;;;5058177;28;20569;-74
2023/10/30 00:26:06;;;;;;;1.77;0.32;;;10.80;99.90;;;;;;5058471;28;20651;-74
2023/10/30 00:28:34;;;;;;;0.85;0.20;;;10.80;99.90;;;;;;5044056;28;20070;-74
2023/10/30 00:31:00;;;;;;;0.55;0.17;;;10.80;99.90;;;;;;5065055;28;20051;-74
2023/10/30 00:33:26;;;;;;;1.67;0.35;;;10.70;99.90;;;;;;5049035;28;20482;-73
2023/10/30 00:35:52;;;;;;;0.43;0.20;;;10.70;99.90;;;;;;5048678;28;20552;-74
2023/10/30 00:38:18;;;;;;;0.90;0.40;;;10.70;99.90;;;;;;5091803;28;20037;-74
2023/10/30 00:40:43;;;;;;;0.63;0.32;;;10.70;99.90;;;;;;5039267;28;20111;-74
2023/10/30 00:43:10;;;;;;;1.48;1.17;;;10.70;99.90;;;;;;5042643;28;20064;-74
2023/10/30 00:45:35;;;;;;;0.32;0.20;;;10.60;99.90;;;;;;5044357;28;20037;-74
2023/10/30 00:48:01;;;;;;;0.55;0.32;;;10.60;99.90;;;;;;5075474;28;20502;-74
2023/10/30 00:50:27;;;;;;;3.28;0.10;;;10.60;99.90;;;;;;5037615;28;20032;-74
2023/10/30 00:52:52;;;;;;;0.52;0.10;;;10.60;99.90;;;;;;5060900;28;20375;-74
2023/10/30 00:55:18;;;;;;;2.47;0.28;;;10.60;99.90;;;;;;5059076;28;20021;-74
2023/10/30 00:57:44;;;;;;;0.90;0.50;;;10.60;99.90;;;;;;5055903;28;20039;-73
2023/10/30 01:00:10;;;;;;;0.70;0.30;;;10.60;99.90;;;;;;5056751;28;20036;-73
2023/10/30 01:02:36;;;;;;;1.95;0.35;;;10.60;99.90;;;;;;5056307;28;20041;-74
2023/10/30 01:05:01;;;;;;;2.13;0.28;;;10.60;99.90;;;;;;5055408;28;20043;-73
2023/10/30 01:07:27;;;;;;;0.45;0.28;;;10.50;99.90;;;;;;5044613;28;20032;-73
2023/10/30 01:09:52;;;;;;;1.35;0.68;;;10.50;99.90;;;;;;5058475;28;20433;-74
2023/10/30 01:12:18;;;;;;;1.10;0.32;;;10.50;99.90;;;;;;5093379;28;20120;-73
2023/10/30 01:14:44;;;;;;;1.08;0.45;;;10.50;99.90;;;;;;5060615;28;20044;-73
2023/10/30 01:17:09;;;;;;;0.52;0.40;;;10.50;99.90;;;;;;5058067;28;20028;-73
2023/10/30 01:19:35;;;;;;;0.52;0.20;;;10.50;99.90;;;;;;5056561;28;20033;-74
2023/10/30 01:22:00;;;;;;;2.85;0.43;;;10.50;99.90;;;;;;5044401;28;20033;-74
2023/10/30 01:24:26;;;;;;;0.70;0.40;;;10.50;99.90;;;;;;5042528;28;20115;-73
2023/10/30 01:26:52;;;;;;;0.32;0.20;;;10.50;99.90;;;;;;5057893;28;20383;-74
2023/10/30 01:29:17;;;;;;;1.25;0.22;;;10.50;99.90;;;;;;5043643;28;20268;-74
2023/10/30 01:31:43;;;;;;;0.20;0.20;;;10.50;99.90;;;;;;5065869;28;20044;-73
2023/10/30 01:34:08;;;;;;;1.75;0.63;;;10.50;99.90;;;;;;5067015;28;20039;-74
2023/10/30 01:36:34;;;;;;;0.10;0.10;;;10.50;99.90;;;;;;5065922;28;20040;-74
2023/10/30 01:39:00;;;;;;;2.67;0.50;;;10.50;99.90;;;;;;5061859;28;20359;-74
2023/10/30 01:41:26;;;;;;;2.05;0.50;;;10.50;99.90;;;;;;5062816;28;20032;-74
2023/10/30 01:43:52;;;;;;;0.13;0.13;;;10.50;99.90;;;;;;5057165;28;20355;-74
2023/10/30 01:46:17;;;;;;;1.08;0.35;;;10.50;99.90;;;;;;5095527;27;20037;-74
2023/10/30 01:48:43;;;;;;;0.73;0.30;;;10.40;99.90;;;;;;5047294;28;20087;-74
2023/10/30 01:51:10;;;;;;;2.10;0.28;;;10.40;99.90;;;;;;5047488;28;20029;-74
2023/10/30 01:53:37;;;;;;;0.47;0.30;;;10.50;99.90;;;;;;5062353;28;20553;-74
2023/10/30 01:56:04;;;;;;;0.50;0.40;;;10.30;99.90;;;;;;5060260;28;20375;-73
2023/10/30 01:58:30;;;;;;;0.30;0.20;;;10.40;99.90;;;;;;5041373;28;20374;-74
2023/10/30 02:00:57;;;;;;;2.03;0.38;;;10.30;99.90;;;;;;5059591;28;20051;-74
2023/10/30 02:03:22;;;;;;;0.38;0.20;;;10.30;99.90;;;;;;5061759;28;20048;-74
2023/10/30 02:05:49;;;;;;;0.47;0.35;;;10.30;99.90;;;;;;5094502;28;20122;-74
2023/10/30 02:08:16;;;;;;;2.38;0.63;;;10.30;99.90;;;;;;5043390;28;20044;-73
2023/10/30 02:10:41;;;;;;;2.70;0.40;;;10.30;99.90;;;;;;5062667;28;20048;-73
2023/10/30 02:13:07;;;;;;;0.50;0.47;;;10.30;99.90;;;;;;5044021;28;20240;-74
2023/10/30 02:15:33;;;;;;;4.63;0.70;;;10.30;99.90;;;;;;5047128;28;20072;-74
2023/10/30 02:17:59;;;;;;;0.95;0.40;;;10.30;99.90;;;;;;5060594;28;20111;-74
2023/10/30 02:20:26;;;;;;;3.05;0.40;;;10.30;99.90;;;;;;5061468;28;20459;-74
2023/10/30 02:22:51;;;;;;;0.20;0.10;;;10.30;99.90;;;;;;5046865;28;20037;-74
2023/10/30 02:25:22;;;;;;;1.42;0.30;;;10.30;99.90;;;;;;5044542;28;20037;-73
2023/10/30 02:27:49;;;;;;;2.03;0.85;;;10.30;99.90;;;;;;5058894;28;20110;-73
2023/10/30 02:30:15;;;;;;;0.30;0.20;;;10.30;99.90;;;;;;5072806;28;20576;-73
2023/10/30 02:32:42;;;;;;;0.95;0.47;;;10.40;99.90;;;;;;5044470;28;20140;-74
2023/10/30 02:35:13;;;;;;;1.63;0.30;;;10.40;99.90;;;;;;5093279;28;20048;-74
2023/10/30 02:37:38;;;;;;;0.60;0.30;;;10.40;99.90;;;;;;5047626;28;20024;-74
2023/10/30 02:40:05;;;;;;;0.63;0.30;;;10.30;99.90;;;;;;5055252;28;20102;-73
2023/10/30 02:42:30;;;;;;;1.35;0.35;;;10.40;99.90;;;;;;5095653;28;20041;-74
2023/10/30 02:44:56;;;;;;;1.65;0.47;;;10.30;99.90;;;;;;5059372;28;20032;-73
2023/10/30 02:47:23;;;;;;;0.68;0.30;;;10.30;99.90;;;;;;5063066;28;20518;-73
2023/10/30 02:49:49;;;;;;;4.50;0.63;;;10.30;99.90;;;;;;5060428;28;20813;-73
2023/10/30 02:52:14;;;;;;;0.17;0.17;;;10.30;99.90;;;;;;5057986;28;20132;-73
2023/10/30 02:54:40;;;;;;;0.75;0.30;;;10.30;99.90;;;;;;5060320;28;20090;-74
2023/10/30 02:57:06;;;;;;;1.77;0.28;;;10.30;99.90;;;;;;5046008;28;20037;-73
2023/10/30 02:59:31;;;;;;;3.35;0.50;;;10.30;99.90;;;;;;5060225;28;20127;-74
2023/10/30 03:01:58;;;;;;;0.45;0.35;;;10.30;99.90;;;;;;5058276;28;20041;-74
2023/10/30 03:04:24;;;;;;;0.45;0.28;;;10.30;99.90;;;;;;5095410;28;20040;-74
2023/10/30 03:06:50;;;;;;;0.88;0.30;;;10.40;99.90;;;;;;5055959;28;20037;-74
2023/10/30 03:09:15;;;;;;;4.20;0.68;;;10.30;99.90;;;;;;5037363;28;20032;-73
2023/10/30 03:11:41;;;;;;;0.75;0.30;;;10.30;99.90;;;;;;5044182;28;20453;-74
2023/10/30 03:14:06;;;;;;;1.25;0.28;;;10.30;99.90;;;;;;5059177;28;20421;-74
2023/10/30 03:16:32;;;;;;;0.75;0.13;;;10.30;99.90;;;;;;5065599;28;20028;-73
2023/10/30 03:18:58;;;;;;;1.00;0.47;;;10.20;99.90;;;;;;5049417;28;20033;-74
2023/10/30 03:21:23;;;;;;;2.20;0.30;;;10.20;99.90;;;;;;5065995;28;20032;-74
2023/10/30 03:23:49;;;;;;;0.50;0.30;;;10.30;99.90;;;;;;5056662;28;20123;-74
2023/10/30 03:26:14;;;;;;;0.30;0.20;;;10.30;99.90;;;;;;5039870;28;20048;-74
2023/10/30 03:28:40;;;;;;;0.52;0.20;;;10.30;99.90;;;;;;5060082;28;20033;-73
2023/10/30 03:31:06;;;;;;;2.50;0.52;;;10.30;99.90;;;;;;5088804;27;20036;-74
2023/10/30 03:33:32;;;;;;;0.32;0.28;;;10.30;99.90;;;;;;5060531;28;20651;-74
2023/10/30 03:35:58;;;;;;;3.92;0.68;;;10.30;99.90;;;;;;5059286;28;20041;-74
2023/10/30 03:38:24;;;;;;;1.33;0.22;;;10.20;99.90;;;;;;5060911;28;20142;-74
2023/10/30 03:40:49;;;;;;;0.40;0.22;;;10.30;99.90;;;;;;5060241;28;20074;-74
2023/10/30 03:43:16;;;;;;;0.73;0.28;;;10.30;99.90;;;;;;5059021;28;20200;-73
2023/10/30 03:45:43;;;;;;;2.50;0.35;;;10.30;99.90;;;;;;5057193;28;20799;-73
2023/10/30 03:48:09;;;;;;;2.25;0.17;;;10.30;99.90;;;;;;5092274;28;20058;-74
2023/10/30 03:50:34;;;;;;;2.92;0.45;;;10.30;99.90;;;;;;5043424;28;20041;-74
2023/10/30 03:53:00;;;;;;;3.70;0.55;;;10.20;99.90;;;;;;5059396;28;20044;-74
2023/10/30 03:55:26;;;;;;;0.82;0.25;;;10.30;99.90;;;;;;5057849;28;20367;-74
2023/10/30 03:57:52;;;;;;;0.65;0.20;;;10.30;99.90;;;;;;5060439;28;20060;-74
2023/10/30 04:00:17;;;;;;;0.68;0.35;;;10.30;99.90;;;;;;5055443;28;20037;-73
2023/10/30 04:02:43;;;;;;;1.13;0.20;;;10.30;99.90;;;;;;5056289;28;20335;-74
2023/10/30 04:05:09;;;;;;;2.35;0.52;;;10.30;99.90;;;;;;5060597;28;20098;-74
2023/10/30 04:07:34;;;;;;;0.88;0.15;;;10.40;99.90;;;;;;5057553;28;20131;-74
2023/10/30 04:10:00;;;;;;;3.00;0.45;;;10.30;99.90;;;;;;5059460;28;20106;-73
2023/10/30 04:12:26;;;;;;;1.45;0.38;;;10.30;99.90;;;;;;5044057;28;20573;-74
2023/10/30 04:14:51;;;;;;;0.13;0.10;;;10.30;99.90;;;;;;5044015;28;20043;-74
2023/10/30 04:17:17;;;;;;;2.28;0.52;;;10.30;99.90;;;;;;5041738;28;20070;-74
2023/10/30 04:19:42;;;;;;;0.43;0.20;;;10.30;99.90;;;;;;5054261;28;20378;-74
2023/10/30 04:22:08;;;;;;;1.90;0.30;;;10.30;99.90;;;;;;5044628;28;20143;-74
2023/10/30 04:24:34;;;;;;;2.20;0.45;;;10.30;99.90;;;;;;5055664;28;20036;-74
2023/10/30 04:26:59;;;;;;;1.42;0.45;;;10.30;99.90;;;;;;5057195;28;20140;-74
2023/10/30 04:29:26;;;;;;;0.60;0.20;;;10.30;99.90;;;;;;5053958;28;20043;-74
2023/10/30 04:31:52;;;;;;;3.67;0.30;;;10.30;99.90;;;;;;5054429;28;20132;-74
2023/10/30 04:34:19;;;;;;;0.57;0.22;;;10.30;99.90;;;;;;5046115;28;20036;-74
2023/10/30 04:36:45;;;;;;;0.47;0.28;;;10.20;99.90;;;;;;5045008;28;20059;-74
2023/10/30 04:39:11;;;;;;;1.98;0.30;;;10.30;99.90;;;;;;5057773;28;20522;-74
2023/10/30 04:41:37;;;;;;;3.28;0.25;;;10.30;99.90;;;;;;5060021;28;20501;-74
2023/10/30 04:44:03;;;;;;;6.88;0.50;;;10.30;99.90;;;;;;5074757;28;20044;-74
2023/10/30 04:46:28;;;;;;;0.65;0.17;;;10.30;99.90;;;;;;5041252;28;20040;-74
2023/10/30 04:48:54;;;;;;;0.40;0.22;;;10.30;99.90;;;;;;5042700;28;20055;-74
2023/10/30 04:51:19;;;;;;;0.85;0.30;;;10.30;99.90;;;;;;5058951;28;20043;-74
2023/10/30 04:53:45;;;;;;;0.50;0.20;;;10.30;99.90;;;;;;5056431;28;20099;-74
2023/10/30 04:56:11;;;;;;;0.20;0.10;;;10.30;99.90;;;;;;5057878;28;20502;-73
2023/10/30 04:58:36;;;;;;;0.60;0.15;;;10.30;99.90;;;;;;5059614;28;20040;-74
2023/10/30 05:01:09;;;;;;;1.48;0.43;;;10.30;99.90;;;;;;5057626;28;20078;-74
2023/10/30 05:03:36;;;;;;;1.02;0.40;;;10.30;99.90;;;;;;5039894;28;20037;-74
2023/10/30 05:06:02;;;;;;;0.65;0.15;;;10.30;99.90;;;;;;5064644;28;20426;-73
2023/10/30 05:08:27;;;;;;;0.95;0.30;;;10.30;99.90;;;;;;5062119;28;20169;-74
2023/10/30 05:10:53;;;;;;;1.35;0.50;;;10.30;99.90;;;;;;5096362;28;20124;-73
2023/10/30 05:13:20;;;;;;;0.63;0.30;;;10.30;99.90;;;;;;5062097;28;20051;-74
2023/10/30 05:15:46;;;;;;;3.13;0.75;;;10.30;99.90;;;;;;5049127;28;20109;-74
2023/10/30 05:18:11;;;;;;;0.08;0.08;;;10.30;99.90;;;;;;5059698;28;20032;-73
2023/10/30 05:20:37;;;;;;;0.93;0.20;;;10.30;99.90;;;;;;5061508;28;20040;-74
2023/10/30 05:23:03;;;;;;;2.47;0.47;;;10.30;99.90;;;;;;5059539;28;20119;-74
2023/10/30 05:25:28;;;;;;;3.15;0.30;;;10.30;99.90;;;;;;5046173;28;20029;-73
2023/10/30 05:27:54;;;;;;;5.30;0.65;;;10.30;99.90;;;;;;5058203;28;20497;-74
2023/10/30 05:30:20;;;;;;;2.67;0.38;;;10.20;99.90;;;;;;5056462;28;20036;-73
2023/10/30 05:32:45;;;;;;;5.30;0.43;;;10.30;99.90;;;;;;5043251;28;20446;-74
2023/10/30 05:35:11;;;;;;;2.00;0.17;;;10.20;99.90;;;;;;5063442;28;20044;-73
2023/10/30 05:37:36;;;;;;;1.35;0.10;;;10.20;99.90;;;;;;5060369;28;20037;-74
2023/10/30 05:40:02;;;;;;;0.75;0.20;;;10.20;99.90;;;;;;5044977;28;20036;-73
2023/10/30 05:42:28;;;;;;;4.82;0.50;;;10.20;99.90;;;;;;5060379;28;20540;-74
2023/10/30 05:44:54;;;;;;;0.20;0.10;;;10.20;99.90;;;;;;5060279;28;20044;-73
2023/10/30 05:47:19;;;;;;;1.02;0.50;;;10.30;99.90;;;;;;5095826;27;20040;-74
2023/10/30 05:49:45;;;;;;;2.35;0.32;;;10.20;99.90;;;;;;5041234;28;20037;-73
2023/10/30 05:52:11;;;;;;;1.35;0.35;;;10.20;99.90;;;;;;5092132;28;20063;-73
2023/10/30 05:54:37;;;;;;;1.13;0.25;;;10.20;99.90;;;;;;5090562;28;20036;-74
2023/10/30 05:57:02;;;;;;;1.23;0.50;;;10.20;99.90;;;;;;5059497;28;20267;-73
2023/10/30 05:59:28;;;;;;;0.57;0.22;;;10.20;99.90;;;;;;5094667;28;20267;-73
2023/10/30 06:01:53;;;;;;;5.43;0.40;;;10.20;99.90;;;;;;5061224;28;20040;-73
2023/10/30 06:04:19;;;;;;;0.22;0.17;;;10.20;99.90;;;;;;5057987;28;20972;-73
2023/10/30 06:06:45;;;;;;;1.55;0.50;;;10.20;99.90;;;;;;5064530;28;20252;-73
2023/10/30 06:09:10;;;;;;;1.27;0.20;;;10.20;99.90;;;;;;5060691;28;20078;-74
2023/10/30 06:11:36;;;;;;;0.30;0.25;;;10.20;99.90;;;;;;5060286;28;20493;-74
2023/10/30 06:14:01;;;;;;;3.45;0.43;;;10.20;99.90;;;;;;5056994;28;20043;-74
2023/10/30 06:16:27;;;;;;;4.07;1.17;;;10.20;99.90;;;;;;5090592;27;20024;-73
2023/10/30 06:18:53;;;;;;;0.63;0.40;;;10.20;99.90;;;;;;5064305;28;20033;-73
2023/10/30 06:21:19;;;;;;;0.38;0.30;;;10.20;99.90;;;;;;5091314;28;20036;-74
2023/10/30 06:23:45;;;;;;;2.58;0.30;;;10.20;99.90;;;;;;5060080;28;20544;-73
2023/10/30 06:26:14;;;;;;;0.45;0.32;;;10.20;99.90;;;;;;5058473;28;20568;-74
2023/10/30 06:28:40;;;;;;;2.78;0.30;;;10.10;99.90;;;;;;5057540;28;20041;-74
2023/10/30 06:31:26;;;;;;;1.77;0.68;;;10.20;99.90;;;;;;5059431;28;20375;-74
2023/10/30 06:33:52;;;;;;;0.35;0.20;;;10.20;99.90;;;;;;5060058;28;20044;-74
2023/10/30 06:36:17;;;;;;;4.78;0.77;;;10.20;99.90;;;;;;5063531;28;20533;-74
2023/10/30 06:38:43;;;;;;;0.75;0.45;;;10.20;99.90;;;;;;5048938;28;20033;-74
2023/10/30 06:41:08;;;;;;;0.00;0.00;;;10.20;99.90;;;;;;5059323;28;20495;-74
2023/10/30 06:43:34;;;;;;;1.30;0.50;;;10.20;99.90;;;;;;5056971;28;20052;-73
2023/10/30 06:46:03;;;;;;;0.40;0.28;;;10.20;99.90;;;;;;5042015;28;20044;-74
2023/10/30 06:48:29;;;;;;;0.35;0.20;;;10.20;99.90;;;;;;5092233;28;20505;-74
2023/10/30 06:50:55;;;;;;;0.95;0.10;;;10.30;99.90;;;;;;5060369;28;20036;-73
2023/10/30 06:53:21;;;;;;;2.45;0.20;;;10.30;99.90;;;;;;5057844;28;20037;-74
2023/10/30 06:55:47;;;;;;;1.63;0.68;;;10.30;99.90;;;;;;5043986;28;20821;-74
2023/10/30 06:58:13;;;;;;;0.10;0.10;;;10.30;99.90;;;;;;5042101;28;20024;-74
2023/10/30 07:00:38;;;;;;;0.82;0.30;;;10.40;99.90;;;;;;5043292;28;20509;-74
2023/10/30 07:03:04;;;;;;;1.50;0.22;;;10.40;99.90;;;;;;5047129;28;20048;-75
2023/10/30 07:05:30;;;;;;;2.72;0.30;;;10.40;99.90;;;;;;5060812;28;20052;-73
2023/10/30 07:07:55;;;;;;;1.95;0.30;;;10.50;99.90;;;;;;5054911;28;20045;-73
2023/10/30 07:10:21;;;;;;;2.22;0.30;;;10.50;99.90;;;;;;5057734;28;20048;-74
2023/10/30 07:12:47;;;;;;;3.97;0.73;;;10.50;99.90;;;;;;5041824;28;20072;-74
2023/10/30 07:15:13;;;;;;;3.63;0.45;;;10.50;99.90;;;;;;5057622;28;20036;-78
2023/10/30 07:17:38;;;;;;;1.65;0.20;;;10.50;99.90;;;;;;5070519;28;21208;-74
2023/10/30 07:20:04;;;;;;;1.10;0.47;;;10.50;99.90;;;;;;5053070;28;20041;-73
2023/10/30 07:22:30;;;;;;;0.65;0.45;;;10.60;99.90;;;;;;5054123;28;20523;-73
2023/10/30 07:24:56;;;;;;;2.05;0.25;;;10.60;99.90;;;;;;5034977;28;20044;-73
2023/10/30 07:27:22;;;;;;;1.88;0.43;;;10.60;99.90;;;;;;5052571;28;20036;-73
2023/10/30 07:29:48;;;;;;;0.57;0.40;;;10.60;99.90;;;;;;5072125;28;20049;-73
2023/10/30 07:32:14;;;;;;;3.22;0.20;;;10.60;99.90;;;;;;5053653;28;20517;-73
2023/10/30 07:34:43;;;;;;;1.70;0.70;;;10.70;99.90;;;;;;5056078;28;20028;-73
2023/10/30 07:37:08;;;;;;;0.70;0.40;;;10.70;99.90;;;;;;5039454;28;20055;-74
2023/10/30 07:39:34;;;;;;;1.17;0.38;;;10.70;99.90;;;;;;5055467;28;20044;-73
2023/10/30 07:42:00;;;;;;;1.40;0.77;;;10.70;99.90;;;;;;5054611;28;20040;-72
2023/10/30 07:44:26;;;;;;;1.20;0.30;;;10.80;99.90;;;;;;5057174;28;20469;-73
2023/10/30 07:46:52;;;;;;;0.45;0.22;;;10.80;99.90;;;;;;5057578;28;20547;-72
2023/10/30 07:49:17;;;;;;;5.90;0.40;;;10.80;99.90;;;;;;5089993;28;20202;-73
2023/10/30 07:51:43;;;;;;;2.08;0.52;;;10.80;99.90;;;;;;5058274;28;20064;-73
2023/10/30 07:54:09;;;;;;;2.30;0.38;;;10.80;99.90;;;;;;5051482;28;20494;-73
2023/10/30 07:56:34;;;;;;;1.50;0.52;;;10.80;99.90;;;;;;5057474;28;20059;-73
2023/10/30 07:59:00;;;;;;;0.40;0.20;;;10.90;99.90;;;;;;5053153;28;20062;-73
2023/10/30 08:01:26;;;;;;;2.60;0.70;;;10.90;99.90;;;;;;5089240;28;20045;-73
2023/10/30 08:03:51;;;;;;;3.58;0.88;;;10.90;99.90;;;;;;5040395;28;20132;-73
2023/10/30 08:06:17;;;;;;;1.13;0.20;;;10.90;99.90;;;;;;5070437;28;20040;-73
2023/10/30 08:08:42;;;;;;;2.67;0.40;;;11.00;99.90;;;;;;5054079;28;20043;-73
2023/10/30 08:11:11;;;;;;;0.20;0.20;;;11.00;99.90;;;;;;5054555;28;20040;-72
2023/10/30 08:13:37;;;;;;;1.58;0.25;;;11.00;99.90;;;;;;5087090;28;20041;-73
2023/10/30 08:16:03;;;;;;;1.75;0.40;;;11.00;99.90;;;;;;5041310;28;20487;-73
2023/10/30 08:18:29;;;;;;;0.40;0.20;;;11.10;99.90;;;;;;5055996;28;20142;-73
2023/10/30 08:20:58;;;;;;;0.85;0.43;;;11.10;99.90;;;;;;5055608;28;20045;-73
2023/10/30 08:23:23;;;;;;;1.42;0.30;;;11.10;99.90;;;;;;5058874;28;20577;-73
2023/10/30 08:25:49;;;;;;;3.53;0.30;;;11.10;99.90;;;;;;5056136;28;20044;-73
2023/10/30 08:28:14;;;;;;;1.60;0.43;;;11.20;99.90;;;;;;5059751;28;20410;-73
2023/10/30 08:30:40;;;;;;;0.30;0.30;;;11.20;99.90;;;;;;5042819;28;20090;-72
2023/10/30 08:33:06;;;;;;;0.63;0.30;;;11.20;99.90;;;;;;5059664;28;20616;-73
2023/10/30 08:35:32;;;;;;;0.43;0.20;;;11.30;99.90;;;;;;5056985;28;20038;-72
2023/10/30 08:37:59;;;;;;;1.85;0.52;;;11.30;99.90;;;;;;5039028;28;20094;-72
2023/10/30 08:40:25;;;;;;;0.77;0.30;;;11.40;99.90;;;;;;5063563;28;20032;-72
2023/10/30 08:42:51;;;;;;;1.05;0.25;;;11.40;99.90;;;;;;5051847;28;20045;-73
2023/10/30 08:45:17;;;;;;;0.45;0.30;;;11.40;99.90;;;;;;5060482;28;20040;-71
2023/10/30 08:47:43;;;;;;;0.57;0.28;;;11.40;99.90;;;;;;5044369;28;20119;-72
2023/10/30 08:50:09;;;;;;;1.17;0.40;;;11.50;99.90;;;;;;5090749;27;20033;-72
2023/10/30 08:52:35;;;;;;;1.17;0.22;;;11.50;99.90;;;;;;5059152;28;20066;-73
2023/10/30 08:55:01;;;;;;;2.15;0.40;;;11.60;99.90;;;;;;5062302;28;20163;-73
2023/10/30 08:57:27;;;;;;;6.25;0.40;;;11.60;99.90;;;;;;5059819;28;20470;-73
2023/10/30 08:59:53;;;;;;;1.52;0.40;;;11.60;99.90;;;;;;5063483;28;20090;-73
2023/10/30 09:02:18;;;;;;;2.00;0.40;;;11.60;99.90;;;;;;5051298;28;20160;-73
2023/10/30 09:04:44;;;;;;;0.52;0.10;;;11.70;99.90;;;;;;5063039;28;20139;-73
2023/10/30 09:07:10;;;;;;;1.95;0.40;;;11.70;99.90;;;;;;5045308;28;20324;-72
2023/10/30 09:09:35;;;;;;;1.42;0.30;;;11.70;99.90;;;;;;5046431;28;20081;-73
2023/10/30 09:12:01;;;;;;;0.73;0.20;;;11.70;99.90;;;;;;5063475;28;20545;-73
2023/10/30 09:14:27;;;;;;;0.77;0.30;;;11.80;99.90;;;;;;5065363;28;20473;-72
2023/10/30 09:16:53;;;;;;;0.82;0.30;;;11.80;99.90;;;;;;5080571;28;20040;-73
2023/10/30 09:19:19;;;;;;;2.55;0.63;;;11.90;99.90;;;;;;5046880;28;20066;-73
2023/10/30 09:21:45;;;;;;;1.95;0.25;;;11.90;99.90;;;;;;5042682;28;20472;-73
2023/10/30 09:24:11;;;;;;;4.13;0.85;;;11.90;99.90;;;;;;5044276;28;20024;-72
2023/10/30 09:26:36;;;;;;;1.75;0.38;;;12.00;99.90;;;;;;5061149;28;20417;-73
2023/10/30 09:29:02;;;;;;;4.78;0.68;;;12.00;99.90;;;;;;5056804;28;20024;-76
2023/10/30 09:31:30;;;;;;;0.68;0.40;;;12.10;99.90;;;;;;5059683;28;20474;-73
2023/10/30 09:33:59;;;;;;;3.22;0.47;;;12.00;99.90;;;;;;5058287;28;20126;-73
2023/10/30 09:36:25;;;;;;;2.05;0.22;;;12.10;99.90;;;;;;5044272;28;20067;-72
2023/10/30 09:38:53;;;;;;;2.17;0.35;;;12.10;99.90;;;;;;5045563;28;20068;-74
2023/10/30 09:41:19;;;;;;;1.77;0.25;;;12.20;99.90;;;;;;5043775;28;20040;-74
2023/10/30 09:43:51;;;;;;;3.42;0.85;;;12.20;99.90;;;;;;5042127;28;20127;-79
2023/10/30 09:46:19;;;;;;;0.60;0.30;;;12.30;99.90;;;;;;5057851;28;20151;-74
2023/10/30 09:48:45;;;;;;;0.57;0.28;;;12.20;99.90;;;;;;5066481;28;20037;-74
2023/10/30 09:51:11;;;;;;;4.00;0.73;;;12.20;99.90;;;;;;5062009;28;20653;-73
2023/10/30 09:53:38;;;;;;;0.85;0.40;;;12.30;99.90;;;;;;5062799;28;20037;-73
2023/10/30 09:56:08;;;;;;;0.50;0.30;;;12.20;99.90;;;;;;5063760;28;20040;-73
2023/10/30 09:58:37;;;;;;;2.85;0.70;;;12.20;99.90;;;;;;5060354;28;20074;-79
2023/10/30 10:01:03;;;;;;;3.25;0.50;;;12.20;99.90;;;;;;5047737;28;20442;-73
2023/10/30 10:03:29;;;;;;;4.88;0.75;;;12.20;99.90;;;;;;5063153;28;20037;-74
2023/10/30 10:05:55;;;;;;;0.60;0.30;;;12.20;99.90;;;;;;5063113;28;21649;-74
2023/10/30 10:08:22;;;;;;;0.93;0.30;;;12.20;99.90;;;;;;5079381;28;20048;-73
2023/10/30 10:10:54;;;;;;;0.10;0.10;;;12.20;99.90;;;;;;5065455;28;20086;-73
2023/10/30 10:13:20;;;;;;;0.30;0.30;;;12.10;99.90;;;;;;5062819;28;20047;-74
2023/10/30 10:15:45;;;;;;;0.52;0.40;;;12.10;99.90;;;;;;5062308;28;20036;-73
2023/10/30 10:18:32;;;;;;;0.35;0.20;;;12.10;99.90;;;;;;5046430;28;20032;-74
2023/10/30 10:21:08;;;;;;;2.78;0.28;;;12.10;99.90;;;;;;5060011;28;20028;-73
2023/10/30 10:23:35;;;;;;;6.68;0.40;;;12.10;99.90;;;;;;5077126;28;20041;-73
2023/10/30 10:26:04;;;;;;;0.80;0.38;;;12.10;99.90;;;;;;5064501;28;20123;-73
2023/10/30 10:28:31;;;;;;;1.92;0.52;;;12.10;99.90;;;;;;5062237;28;20044;-73
2023/10/30 10:30:57;;;;;;;1.10;0.47;;;12.20;99.90;;;;;;5061868;28;20055;-74
2023/10/30 10:33:24;;;;;;;2.65;0.73;;;12.20;99.90;;;;;;5063472;28;20032;-73
2023/10/30 10:35:54;;;;;;;1.25;0.22;;;12.30;99.90;;;;;;5063449;28;20486;-73
2023/10/30 10:38:21;;;;;;;1.23;0.40;;;12.30;99.90;;;;;;5062831;28;20072;-73
2023/10/30 10:40:47;;;;;;;3.75;0.40;;;12.40;99.90;;;;;;5060456;28;22466;-74
2023/10/30 10:43:21;;;;;;;0.98;0.40;;;12.50;99.90;;;;;;5060625;28;20049;-73
2023/10/30 10:45:51;;;;;;;0.20;0.17;;;12.50;99.90;;;;;;5059503;28;20452;-74
2023/10/30 10:48:18;;;;;;;2.08;0.50;;;12.60;99.90;;;;;;5078526;28;20036;-73
2023/10/30 10:50:44;;;;;;;0.63;0.40;;;12.60;99.90;;;;;;5059933;28;20041;-73
2023/10/30 10:53:11;;;;;;;2.35;0.30;;;12.60;99.90;;;;;;5047228;28;20045;-73
2023/10/30 10:55:40;;;;;;;2.08;0.30;;;12.70;99.90;;;;;;5057226;28;20036;-73
2023/10/30 10:58:09;;;;;;;2.10;0.32;;;12.70;99.90;;;;;;5044990;28;20079;-74
2023/10/30 11:00:51;;;;;;;2.08;0.20;;;12.70;99.90;;;;;;5055531;28;20051;-74
2023/10/30 11:03:18;;;;;;;0.75;0.40;;;12.80;99.90;;;;;;5090762;28;20055;-73
2023/10/30 11:05:47;;;;;;;0.30;0.20;;;12.80;99.90;;;;;;5046224;28;20043;-73
2023/10/30 11:08:19;;;;;;;1.30;0.28;;;12.90;99.90;;;;;;5055820;28;20126;-73
2023/10/30 11:10:53;;;;;;;3.20;0.30;;;12.90;99.90;;;;;;5036100;28;20175;-73
2023/10/30 11:13:26;;;;;;;1.27;0.45;;;12.90;99.90;;;;;;5043164;28;20119;-73
2023/10/30 11:16:25;;;;;;;2.33;0.30;;;12.90;99.90;;;;;;5055866;28;20489;-73
2023/10/30 11:18:54;;;;;;;0.25;0.10;;;12.90;99.90;;;;;;5038923;28;20062;-73
2023/10/30 11:21:25;;;;;;;0.98;0.32;;;13.00;99.90;;;;;;5052130;28;20123;-73
2023/10/30 11:23:56;;;;;;;0.38;0.20;;;13.00;99.90;;;;;;5053609;28;20041;-74
2023/10/30 11:26:38;;;;;;;3.15;0.55;;;13.00;99.90;;;;;;5072252;28;20054;-74
2023/10/30 11:29:04;;;;;;;0.55;0.30;;;12.90;99.90;;;;;;5056033;28;20688;-74
2023/10/30 11:31:34;;;;;;;3.80;0.30;;;13.00;99.90;;;;;;5060926;28;20040;-74
2023/10/30 11:34:13;;;;;;;2.70;0.22;;;13.00;99.90;;;;;;5044035;28;20044;-74
2023/10/30 11:36:39;;;;;;;0.40;0.20;;;13.00;99.90;;;;;;5072347;28;20040;-74
2023/10/30 11:39:11;;;;;;;0.50;0.32;;;13.00;99.90;;;;;;5057556;28;20405;-74
2023/10/30 11:41:38;;;;;;;0.30;0.00;;;13.00;99.90;;;;;;5056680;28;20068;-74
2023/10/30 11:44:08;;;;;;;1.08;0.30;;;13.00;99.90;;;;;;5050774;28;20028;-74
2023/10/30 11:46:51;;;;;;;2.85;0.30;;;13.00;99.90;;;;;;5057416;28;20094;-74
2023/10/30 11:49:19;;;;;;;1.75;0.63;;;13.00;99.90;;;;;;5055839;28;20079;-74
2023/10/30 11:51:52;;;;;;;1.15;0.43;;;13.00;99.90;;;;;;5054363;28;20095;-73
2023/10/30 11:54:29;;;;;;;0.70;0.20;;;13.10;99.90;;;;;;5073015;28;20777;-73
2023/10/30 11:56:55;;;;;;;0.55;0.20;;;13.00;99.90;;;;;;5060002;28;20059;-74
2023/10/30 11:59:21;;;;;;;1.50;0.68;;;13.10;99.90;;;;;;5058896;28;20494;-74
2023/10/30 12:01:48;;;;;;;1.10;0.50;;;13.10;99.90;;;;;;5042433;28;20932;-73
2023/10/30 12:04:25;;;;;;;0.45;0.30;;;13.10;99.90;;;;;;5057925;28;20055;-74
2023/10/30 12:06:50;;;;;;;1.90;0.38;;;13.10;99.90;;;;;;5053426;28;20127;-74
2023/10/30 12:09:17;;;;;;;1.13;0.40;;;13.10;99.90;;;;;;5043137;28;20131;-74
2023/10/30 12:11:43;;;;;;;1.27;0.30;;;13.00;99.90;;;;;;5058952;28;20036;-74
2023/10/30 12:14:10;;;;;;;0.68;0.30;;;13.10;99.90;;;;;;5041646;28;20033;-74
2023/10/30 12:16:36;;;;;;;2.15;0.45;;;13.10;99.90;;;;;;5069925;28;20433;-74
2023/10/30 12:19:03;;;;;;;1.55;0.38;;;13.10;99.90;;;;;;5038831;28;20090;-74
2023/10/30 12:21:30;;;;;;;2.03;0.38;;;13.20;99.90;;;;;;5040627;28;20037;-74
2023/10/30 12:23:59;;;;;;;1.10;0.50;;;13.20;99.90;;;;;;5056487;28;20494;-74
2023/10/30 12:26:26;;;;;;;3.50;0.40;;;13.20;99.90;;;;;;5042100;28;20032;-74
2023/10/30 12:28:57;;;;;;;2.50;0.30;;;13.20;99.90;;;;;;5037301;28;20282;-74
2023/10/30 12:31:24;;;;;;;0.70;0.28;;;13.20;99.90;;;;;;5067741;28;20032;-74
2023/10/30 12:34:10;;;;;;;1.17;0.30;;;13.20;99.90;;;;;;5074550;28;20036;-74
2023/10/30 12:36:36;;;;;;;2.55;0.70;;;13.30;99.90;;;;;;5033773;28;20079;-73
2023/10/30 12:39:20;;;;;;;1.40;0.70;;;13.20;99.90;;;;;;5033475;28;20056;-74
2023/10/30 12:41:47;;;;;;;0.82;0.30;;;13.30;99.90;;;;;;5040781;28;20064;-74
2023/10/30 12:44:20;;;;;;;4.40;0.40;;;13.30;99.90;;;;;;5053235;28;20029;-73
2023/10/30 12:46:46;;;;;;;0.50;0.22;;;13.30;99.90;;;;;;5049722;28;20499;-73